Time;durP1;ratioP1;P1;durP2;ratioP2;P2;SDS_P1;SDS_P2;PMS_P1;PMS_P2;Temp;Humidity;BMP_temperature;BMP_pressure;BME280_temperature;BME280_humidity;BME280_pressure;Samples;Min_cycle;Max_cycle;Signal;HPM_P1;HPM_P2
2022/04/22 00:01:09;;;;;;;8.37;6.40;;;10.40;99.90;;;;;;5097777;28;20540;-75
2022/04/22 00:03:34;;;;;;;8.57;6.50;;;10.40;1.00;;;;;;5096942;28;20219;-75
2022/04/22 00:06:01;;;;;;;10.60;6.13;;;10.40;1.00;;;;;;5097875;28;20561;-75
2022/04/22 00:08:26;;;;;;;7.13;5.90;;;10.30;1.00;;;;;;5097437;28;20198;-76
2022/04/22 00:13:36;;;;;;;10.00;6.23;;;10.30;99.90;;;;;;5097798;28;20216;-75
2022/04/22 00:16:02;;;;;;;9.27;6.40;;;10.20;1.00;;;;;;5097842;28;20174;-75
2022/04/22 00:18:28;;;;;;;8.37;6.70;;;10.20;1.00;;;;;;5095611;28;20210;-74
2022/04/22 00:20:53;;;;;;;7.87;6.37;;;10.20;99.90;;;;;;5096193;28;20173;-75
2022/04/22 00:23:20;;;;;;;9.23;6.60;;;10.10;99.90;;;;;;5097609;28;20170;-74
2022/04/22 00:25:45;;;;;;;7.60;6.03;;;10.10;99.90;;;;;;5096006;28;20553;-75
2022/04/22 00:28:11;;;;;;;7.27;6.43;;;10.00;1.00;;;;;;5097144;28;20187;-75
2022/04/22 00:30:37;;;;;;;9.53;6.73;;;10.00;99.90;;;;;;5097438;28;20589;-75
2022/04/22 00:33:04;;;;;;;9.83;6.57;;;9.90;1.00;;;;;;5097546;28;20310;-75
2022/04/22 00:35:29;;;;;;;12.23;6.70;;;9.90;99.90;;;;;;5096944;28;20185;-76
2022/04/22 00:37:55;;;;;;;8.60;6.80;;;9.90;1.00;;;;;;5095680;28;20668;-75
2022/04/22 00:40:20;;;;;;;9.13;6.73;;;9.80;58.90;;;;;;5014053;22;20607;-92
2022/04/22 00:42:46;;;;;;;9.47;6.80;;;9.80;99.90;;;;;;4975088;28;20714;-92
2022/04/22 00:45:12;;;;;;;9.33;7.00;;;9.80;1.00;;;;;;4975259;28;20185;-92
2022/04/22 00:47:38;;;;;;;8.73;7.03;;;9.80;1.00;;;;;;4975702;28;20174;-92
2022/04/22 00:50:04;;;;;;;10.00;7.00;;;9.70;1.00;;;;;;4975312;28;20240;-92
2022/04/22 00:52:30;;;;;;;11.30;7.23;;;9.70;99.90;;;;;;4974682;28;20202;-92
2022/04/22 00:54:56;;;;;;;9.17;7.10;;;9.70;99.90;;;;;;4976532;28;20174;-93
2022/04/22 00:57:22;;;;;;;7.97;7.10;;;9.70;99.90;;;;;;4976370;28;20210;-92
2022/04/22 00:59:48;;;;;;;10.47;7.03;;;9.60;1.00;;;;;;4976358;28;20666;-93
2022/04/22 01:02:14;;;;;;;7.33;6.63;;;9.80;1.00;;;;;;4975180;28;20190;-92
2022/04/22 01:10:08;;;;;;;7.60;6.80;;;9.50;1.00;;;;;;4976626;28;20166;-92
2022/04/22 01:12:34;;;;;;;7.87;6.30;;;9.50;1.00;;;;;;4975473;28;20195;-92
2022/04/22 01:14:59;;;;;;;8.30;6.90;;;9.60;1.00;;;;;;4975250;28;20306;-92
2022/04/22 01:17:26;;;;;;;11.43;6.90;;;9.40;1.00;;;;;;4976593;28;20613;-92
2022/04/22 01:19:53;;;;;;;9.40;7.00;;;9.40;1.00;;;;;;4975108;28;20228;-92
2022/04/22 01:22:19;;;;;;;8.27;6.67;;;9.40;1.00;;;;;;4974861;28;20205;-92
2022/04/22 01:24:45;;;;;;;9.37;7.47;;;9.30;1.00;;;;;;4976384;28;20181;-92
2022/04/22 01:27:10;;;;;;;8.70;7.40;;;9.30;1.00;;;;;;4975272;28;20182;-92
2022/04/22 01:29:36;;;;;;;8.57;6.63;;;9.30;44.50;;;;;;4975495;28;20185;-92
2022/04/22 01:32:02;;;;;;;9.93;7.77;;;9.30;60.60;;;;;;4975155;28;20710;-92
2022/04/22 01:34:28;;;;;;;8.47;7.00;;;9.30;88.40;;;;;;4976469;28;20178;-92
2022/04/22 01:36:53;;;;;;;8.83;7.30;;;9.50;99.90;;;;;;4976226;28;20201;-92
2022/04/22 01:39:19;;;;;;;8.23;7.03;;;9.30;99.90;;;;;;4974870;28;20570;-92
2022/04/22 01:41:44;;;;;;;7.40;6.47;;;9.30;99.90;;;;;;4975176;28;20192;-92
2022/04/22 01:44:10;;;;;;;8.43;6.60;;;9.20;99.90;;;;;;4975161;28;20175;-92
2022/04/22 01:46:36;;;;;;;10.47;7.13;;;9.20;99.90;;;;;;4974564;28;20187;-92
2022/04/22 01:49:02;;;;;;;13.47;6.63;;;9.20;99.90;;;;;;4975819;28;20171;-92
2022/04/22 01:51:28;;;;;;;8.37;7.30;;;9.10;99.90;;;;;;4975850;28;20267;-93
2022/04/22 01:53:54;;;;;;;9.70;6.10;;;9.10;99.90;;;;;;4974905;28;20178;-92
2022/04/22 01:56:21;;;;;;;9.60;7.53;;;9.10;99.90;;;;;;4975221;28;20238;-92
2022/04/22 01:58:47;;;;;;;9.20;7.17;;;9.10;99.90;;;;;;4974722;28;20202;-92
2022/04/22 02:01:12;;;;;;;8.47;6.97;;;9.10;99.90;;;;;;4975887;28;20233;-92
2022/04/22 02:03:38;;;;;;;10.73;7.03;;;9.00;99.90;;;;;;4974950;28;20179;-92
2022/04/22 02:06:04;;;;;;;8.30;7.13;;;9.00;99.90;;;;;;4974906;28;20224;-92
2022/04/22 02:08:31;;;;;;;7.30;6.30;;;9.00;99.90;;;;;;4975568;28;20555;-92
2022/04/22 02:10:56;;;;;;;10.53;6.97;;;9.00;99.90;;;;;;4974954;28;20239;-92
2022/04/22 02:13:22;;;;;;;10.27;6.80;;;8.90;99.90;;;;;;4976130;28;20178;-92
2022/04/22 02:15:48;;;;;;;9.60;7.07;;;8.90;99.90;;;;;;4975023;28;20183;-92
2022/04/22 02:18:13;;;;;;;11.03;6.83;;;8.90;99.90;;;;;;4974760;28;20692;-92
2022/04/22 02:20:39;;;;;;;9.90;7.33;;;9.00;99.90;;;;;;4975186;28;20198;-92
2022/04/22 02:23:05;;;;;;;12.57;7.63;;;10.00;99.90;;;;;;4974853;28;20178;-92
2022/04/22 02:25:30;;;;;;;13.40;7.70;;;8.80;99.90;;;;;;4974791;28;20189;-93
2022/04/22 02:30:40;;;;;;;11.37;8.23;;;8.70;99.90;;;;;;4975971;28;20205;-92
2022/04/22 02:33:05;;;;;;;10.93;8.30;;;8.70;99.90;;;;;;4976312;28;20189;-92
2022/04/22 02:35:31;;;;;;;11.50;8.73;;;8.70;99.90;;;;;;4976177;28;20190;-92
2022/04/22 02:37:56;;;;;;;11.47;8.57;;;8.60;99.90;;;;;;4975867;28;20213;-92
2022/04/22 02:45:51;;;;;;;10.90;8.50;;;8.50;99.90;;;;;;4975974;28;20535;-92
2022/04/22 02:48:17;;;;;;;14.13;8.87;;;8.50;99.90;;;;;;4974478;28;20193;-93
2022/04/22 02:50:43;;;;;;;10.23;8.63;;;8.50;99.90;;;;;;4975149;28;20198;-92
2022/04/22 02:53:09;;;;;;;9.43;8.43;;;8.40;99.90;;;;;;4975509;28;20181;-93
2022/04/22 02:55:38;;;;;;;10.93;9.10;;;9.00;99.90;;;;;;4974894;28;20269;-93
2022/04/22 02:58:05;;;;;;;11.57;9.17;;;8.40;99.90;;;;;;4974015;28;20647;-92
2022/04/22 03:00:31;;;;;;;11.40;9.20;;;8.30;99.90;;;;;;4978439;28;20174;-92
2022/04/22 03:02:56;;;;;;;11.27;9.57;;;8.30;99.90;;;;;;4977470;28;20174;-92
2022/04/22 03:05:22;;;;;;;10.67;8.70;;;8.30;99.90;;;;;;4977505;28;20183;-92
2022/04/22 03:07:47;;;;;;;12.40;9.53;;;8.30;99.90;;;;;;4976975;28;20203;-92
2022/04/22 03:10:13;;;;;;;11.83;8.90;;;8.30;99.90;;;;;;4977504;28;20178;-92
2022/04/22 03:12:41;;;;;;;9.73;8.63;;;8.20;99.90;;;;;;4976681;28;20183;-92
2022/04/22 03:15:07;;;;;;;11.90;9.27;;;8.20;99.90;;;;;;4977520;28;20293;-92
2022/04/22 03:17:33;;;;;;;11.37;9.47;;;8.20;99.90;;;;;;4979035;28;20296;-92
2022/04/22 03:19:58;;;;;;;11.53;9.27;;;8.30;99.90;;;;;;4978566;28;20182;-92
2022/04/22 03:22:26;;;;;;;18.63;11.43;;;8.20;99.90;;;;;;4978128;28;20212;-92
2022/04/22 03:24:52;;;;;;;13.27;9.67;;;8.30;99.90;;;;;;4977291;28;20185;-93
2022/04/22 03:27:17;;;;;;;12.37;10.40;;;8.20;99.90;;;;;;4977298;28;20178;-92
2022/04/22 03:29:43;;;;;;;15.57;11.70;;;8.20;99.90;;;;;;4977778;28;20185;-92
2022/04/22 03:32:10;;;;;;;14.40;11.00;;;8.30;99.90;;;;;;4978070;28;20212;-92
2022/04/22 03:34:36;;;;;;;14.30;11.03;;;8.30;99.90;;;;;;4978612;28;20182;-93
2022/04/22 03:37:01;;;;;;;17.37;11.33;;;8.30;99.90;;;;;;4976709;28;20347;-93
2022/04/22 03:39:27;;;;;;;15.60;11.17;;;8.30;99.90;;;;;;4976675;28;20209;-91
2022/04/22 03:41:53;;;;;;;15.97;11.57;;;8.50;99.90;;;;;;4976422;28;20289;-90
2022/04/22 03:44:18;;;;;;;19.27;12.53;;;8.30;99.90;;;;;;4976958;28;20178;-90
2022/04/22 03:46:44;;;;;;;17.33;11.90;;;8.30;99.90;;;;;;4976786;28;20182;-91
2022/04/22 03:49:09;;;;;;;20.63;12.77;;;8.30;99.90;;;;;;4976821;28;20537;-91
2022/04/22 03:51:35;;;;;;;18.07;11.87;;;8.30;99.90;;;;;;4978492;28;20189;-91
2022/04/22 03:54:01;;;;;;;17.80;12.20;;;8.30;99.90;;;;;;4977482;28;20277;-90
2022/04/22 03:59:11;;;;;;;15.90;12.33;;;8.30;99.90;;;;;;4994955;28;20196;-91
2022/04/22 04:01:36;;;;;;;16.80;12.33;;;8.40;99.90;;;;;;4983328;28;20252;-91
2022/04/22 04:04:02;;;;;;;18.20;12.57;;;8.40;99.90;;;;;;4977599;28;20548;-91
2022/04/22 04:06:28;;;;;;;15.93;12.27;;;8.40;99.90;;;;;;4976440;28;20620;-90
2022/04/22 04:17:07;;;;;;;16.33;13.10;;;8.30;99.90;;;;;;4977898;28;20247;-91
2022/04/22 04:25:01;;;;;;;18.60;13.17;;;8.30;99.90;;;;;;4977192;28;20910;-91
2022/04/22 04:27:27;;;;;;;18.30;13.03;;;8.30;99.90;;;;;;4976739;28;20174;-91
2022/04/22 04:29:53;;;;;;;17.13;13.30;;;8.30;99.90;;;;;;4976835;28;20220;-91
2022/04/22 04:32:18;;;;;;;16.03;12.40;;;8.60;99.90;;;;;;4975755;28;20202;-91
2022/04/22 04:34:44;;;;;;;18.93;13.50;;;8.20;99.90;;;;;;4975846;28;20178;-91
2022/04/22 04:37:11;;;;;;;17.87;13.10;;;8.10;99.90;;;;;;4975665;28;20209;-90
2022/04/22 04:39:36;;;;;;;17.50;13.50;;;8.30;99.90;;;;;;4976247;28;20191;-93
2022/04/22 04:42:02;;;;;;;18.47;13.47;;;8.40;99.90;;;;;;4976699;28;20191;-91
2022/04/22 04:44:28;;;;;;;17.70;12.63;;;8.30;99.90;;;;;;4976306;28;20174;-91
2022/04/22 04:46:54;;;;;;;17.27;13.43;;;8.30;99.90;;;;;;4975790;28;20326;-91
2022/04/22 04:49:20;;;;;;;18.70;13.43;;;8.30;99.90;;;;;;4975081;28;20640;-91
2022/04/22 04:51:45;;;;;;;19.37;13.63;;;8.30;99.90;;;;;;4975156;28;20276;-91
2022/04/22 04:54:11;;;;;;;19.47;14.10;;;8.30;99.90;;;;;;4975541;28;20183;-91
2022/04/22 04:56:37;;;;;;;20.70;15.00;;;8.30;99.90;;;;;;4975908;28;20553;-91
2022/04/22 04:59:02;;;;;;;19.87;14.20;;;8.20;99.90;;;;;;4975301;28;20206;-91
2022/04/22 05:01:28;;;;;;;19.60;13.90;;;8.20;99.90;;;;;;4975644;28;20261;-91
2022/04/22 05:03:53;;;;;;;22.03;15.13;;;8.30;99.90;;;;;;4975424;28;20548;-91
2022/04/22 05:06:19;;;;;;;19.37;14.60;;;8.30;99.90;;;;;;4975062;28;20218;-91
2022/04/22 05:08:45;;;;;;;19.60;15.03;;;8.30;99.90;;;;;;4975023;28;20182;-91
2022/04/22 05:11:11;;;;;;;20.57;15.23;;;8.30;99.90;;;;;;4975063;28;20212;-91
2022/04/22 05:13:37;;;;;;;22.93;15.47;;;8.40;99.90;;;;;;4974845;28;20297;-92
2022/04/22 05:16:03;;;;;;;20.83;15.87;;;8.40;99.90;;;;;;5029667;22;20251;-75
2022/04/22 05:18:29;;;;;;;23.60;16.37;;;8.40;99.90;;;;;;5037760;28;20324;-77
2022/04/22 05:20:55;;;;;;;23.87;16.30;;;8.30;99.90;;;;;;5033089;28;20187;-76
2022/04/22 05:23:21;;;;;;;22.47;15.33;;;8.50;99.90;;;;;;5033724;28;20172;-77
2022/04/22 05:25:47;;;;;;;23.73;16.40;;;8.50;99.90;;;;;;5034451;28;20171;-76
2022/04/22 05:28:13;;;;;;;22.53;17.17;;;8.60;99.90;;;;;;5035393;28;20176;-77
2022/04/22 05:33:22;;;;;;;26.37;18.03;;;8.60;99.90;;;;;;5035125;28;20593;-76
2022/04/22 05:35:48;;;;;;;22.03;17.07;;;8.70;99.90;;;;;;5034850;28;20607;-76
2022/04/22 05:38:15;;;;;;;23.97;18.37;;;8.70;99.90;;;;;;5034557;28;20195;-76
2022/04/22 05:40:42;;;;;;;25.13;18.13;;;8.70;99.90;;;;;;5032233;28;20196;-77
2022/04/22 05:43:08;;;;;;;27.87;19.80;;;8.80;99.90;;;;;;5034942;28;20662;-76
2022/04/22 05:45:35;;;;;;;24.83;19.23;;;8.90;99.90;;;;;;5033872;28;20200;-77
2022/04/22 05:48:00;;;;;;;23.63;19.83;;;9.00;99.90;;;;;;5032172;28;20183;-75
2022/04/22 05:50:27;;;;;;;24.23;19.80;;;9.10;99.90;;;;;;5033743;28;20205;-75
2022/04/22 05:52:54;;;;;;;25.30;20.00;;;9.10;99.90;;;;;;5032303;28;20274;-75
2022/04/22 05:55:22;;;;;;;26.50;20.17;;;9.20;99.90;;;;;;5033828;28;20265;-75
2022/04/22 05:57:49;;;;;;;25.53;20.33;;;9.20;99.90;;;;;;5033471;28;20271;-75
2022/04/22 06:00:18;;;;;;;26.33;20.30;;;9.30;99.90;;;;;;5032108;28;20743;-75
2022/04/22 06:02:44;;;;;;;26.17;20.07;;;9.40;99.90;;;;;;5033610;28;20160;-76
2022/04/22 06:05:12;;;;;;;23.27;19.23;;;9.50;99.90;;;;;;5032215;28;20184;-75
2022/04/22 06:07:38;;;;;;;26.93;19.87;;;9.50;99.90;;;;;;5033361;28;20242;-76
2022/04/22 06:12:50;;;;;;;25.67;19.83;;;9.50;99.90;;;;;;5033743;28;20311;-76
2022/04/22 06:15:16;;;;;;;24.03;20.07;;;9.50;99.90;;;;;;5033187;28;20216;-75
2022/04/22 06:17:41;;;;;;;23.80;20.13;;;9.50;99.90;;;;;;5033501;28;20696;-76
2022/04/22 06:20:08;;;;;;;23.50;19.47;;;9.50;99.90;;;;;;5033184;28;20633;-76
2022/04/22 06:22:33;;;;;;;26.60;19.97;;;9.50;99.90;;;;;;5032024;28;20172;-76
2022/04/22 06:24:59;;;;;;;27.10;21.03;;;9.50;99.90;;;;;;5033152;28;20256;-76
2022/04/22 06:27:44;;;;;;;24.27;20.37;;;9.60;99.90;;;;;;5033178;28;20195;-76
2022/04/22 06:30:13;;;;;;;24.13;19.77;;;9.60;99.90;;;;;;5031830;28;20265;-76
2022/04/22 06:32:40;;;;;;;25.00;19.50;;;9.70;99.90;;;;;;5031815;28;20324;-76
2022/04/22 06:35:07;;;;;;;23.50;19.10;;;9.80;99.90;;;;;;5033170;28;20645;-75
2022/04/22 06:37:38;;;;;;;25.53;20.20;;;9.90;99.90;;;;;;5033134;28;20200;-75
2022/04/22 06:45:49;;;;;;;23.87;20.37;;;10.10;99.90;;;;;;5033250;28;20330;-75
2022/04/22 06:48:18;;;;;;;24.63;19.60;;;10.10;99.90;;;;;;5033080;28;20168;-75
2022/04/22 06:50:50;;;;;;;23.33;19.27;;;10.20;99.90;;;;;;5032929;28;20673;-74
2022/04/22 06:53:17;;;;;;;26.97;19.53;;;10.30;99.90;;;;;;5031687;28;20172;-75
2022/04/22 06:55:44;;;;;;;24.03;19.47;;;10.40;99.90;;;;;;5032899;28;20548;-74
2022/04/22 06:58:12;;;;;;;21.23;18.70;;;10.40;99.90;;;;;;5032930;28;20191;-75
2022/04/22 07:00:39;;;;;;;21.27;18.60;;;10.50;99.90;;;;;;5032913;28;20658;-75
2022/04/22 07:03:06;;;;;;;21.40;17.77;;;10.60;99.90;;;;;;5031511;28;20550;-76
2022/04/22 07:05:34;;;;;;;21.57;17.00;;;10.70;99.90;;;;;;5067527;22;20234;-92
2022/04/22 07:08:05;;;;;;;20.97;16.80;;;10.80;99.90;;;;;;5072592;28;20223;-92
2022/04/22 07:10:31;;;;;;;22.07;17.17;;;10.90;99.90;;;;;;5073865;28;20222;-91
2022/04/22 07:12:58;;;;;;;19.60;16.70;;;11.00;99.90;;;;;;5075702;28;20167;-92
2022/04/22 07:15:24;;;;;;;18.60;15.80;;;11.10;99.90;;;;;;5073288;28;20196;-92
2022/04/22 07:17:50;;;;;;;19.70;16.23;;;11.20;99.90;;;;;;5076337;28;20215;-92
2022/04/22 07:20:16;;;;;;;17.57;15.53;;;11.30;99.90;;;;;;5075540;28;20239;-91
2022/04/22 07:22:45;;;;;;;16.93;15.13;;;11.40;9.70;;;;;;5074548;28;20159;-92
2022/04/22 07:25:12;;;;;;;17.40;14.43;;;11.50;30.00;;;;;;5074536;28;20220;-89
2022/04/22 07:27:41;;;;;;;15.53;13.57;;;11.60;56.20;;;;;;5074548;28;20167;-91
2022/04/22 07:30:08;;;;;;;15.40;13.77;;;11.70;1.00;;;;;;5077501;28;20148;-91
2022/04/22 07:32:38;;;;;;;14.97;13.07;;;11.80;1.00;;;;;;5077598;28;20156;-92
2022/04/22 07:35:05;;;;;;;17.67;12.47;;;11.90;99.90;;;;;;5071947;28;20210;-92
2022/04/22 07:37:31;;;;;;;14.67;11.33;;;11.90;1.00;;;;;;5070999;28;20290;-92
2022/04/22 07:39:57;;;;;;;13.93;10.73;;;11.90;1.00;;;;;;5073801;28;20163;-92
2022/04/22 07:42:23;;;;;;;13.20;10.53;;;11.90;99.90;;;;;;5072355;28;20188;-92
2022/04/22 07:47:36;;;;;;;11.77;10.57;;;12.10;1.00;;;;;;5070639;28;20171;-92
2022/04/22 07:50:05;;;;;;;13.90;10.67;;;12.10;1.00;;;;;;5072387;28;20191;-92
2022/04/22 07:52:36;;;;;;;12.50;9.57;;;12.20;1.00;;;;;;5067639;28;20191;-92
2022/04/22 07:55:03;;;;;;;9.83;8.80;;;12.30;99.90;;;;;;5070783;28;20210;-92
2022/04/22 07:57:29;;;;;;;10.63;9.17;;;12.30;1.00;;;;;;5067605;28;20203;-91
2022/04/22 07:59:55;;;;;;;11.23;9.50;;;12.60;1.00;;;;;;5070080;28;20179;-92
2022/04/22 08:02:21;;;;;;;10.07;8.97;;;12.40;57.10;;;;;;5070420;28;20176;-91
2022/04/22 08:04:46;;;;;;;10.40;8.90;;;13.10;99.90;;;;;;5073193;28;20218;-92
2022/04/22 08:07:12;;;;;;;13.13;8.90;;;12.60;99.90;;;;;;5077400;28;20179;-91
2022/04/22 08:09:38;;;;;;;10.20;8.67;;;12.70;99.90;;;;;;5074943;28;20184;-92
2022/04/22 08:12:05;;;;;;;10.60;9.00;;;12.70;1.00;;;;;;5076636;28;20194;-90
2022/04/22 08:14:32;;;;;;;10.40;7.93;;;12.70;99.90;;;;;;5075574;28;20178;-92
2022/04/22 08:16:59;;;;;;;9.90;8.43;;;12.80;1.00;;;;;;5071092;28;20172;-92
2022/04/22 08:19:25;;;;;;;9.73;7.50;;;12.90;1.00;;;;;;5073188;28;20262;-91
2022/04/22 08:21:52;;;;;;;7.97;7.17;;;13.10;99.90;;;;;;5075462;28;20171;-91
2022/04/22 08:24:18;;;;;;;9.03;7.10;;;13.10;99.90;;;;;;5073910;28;20191;-92
2022/04/22 08:26:44;;;;;;;8.40;7.40;;;12.90;99.90;;;;;;5075059;28;20182;-92
2022/04/22 08:29:13;;;;;;;8.47;7.57;;;13.10;99.90;;;;;;5072018;28;20163;-92
2022/04/22 08:31:39;;;;;;;8.77;7.87;;;13.00;1.00;;;;;;5079345;28;20167;-92
2022/04/22 08:34:05;;;;;;;13.03;8.50;;;13.20;99.90;;;;;;5076302;28;20172;-92
2022/04/22 08:36:32;;;;;;;8.57;7.30;;;13.10;44.80;;;;;;5074349;28;20191;-91
2022/04/22 08:38:58;;;;;;;9.47;7.60;;;13.30;99.90;;;;;;5073933;28;20257;-92
2022/04/22 08:41:24;;;;;;;8.90;7.50;;;13.40;99.90;;;;;;5075368;28;20758;-92
2022/04/22 08:43:51;;;;;;;8.50;7.30;;;13.50;1.00;;;;;;5071059;28;20618;-92
2022/04/22 08:51:50;;;;;;;10.20;6.53;;;13.80;1.00;;;;;;5074844;28;20206;-92
2022/04/22 08:54:17;;;;;;;8.37;7.57;;;13.70;1.00;;;;;;5072677;28;20176;-91
2022/04/22 08:56:44;;;;;;;7.97;7.00;;;14.30;1.00;;;;;;5075465;28;20172;-91
2022/04/22 08:59:09;;;;;;;7.63;6.30;;;13.90;1.00;;;;;;5072660;28;20192;-92
2022/04/22 09:01:37;;;;;;;7.73;6.93;;;13.90;41.00;;;;;;5071666;28;20183;-92
2022/04/22 09:04:04;;;;;;;7.93;6.23;;;14.50;99.90;;;;;;5071446;28;20247;-92
2022/04/22 09:06:30;;;;;;;7.40;6.20;;;14.00;99.90;;;;;;5075128;28;20298;-93
2022/04/22 09:08:58;;;;;;;8.00;7.20;;;14.10;99.90;;;;;;5075341;28;20187;-91
2022/04/22 09:11:24;;;;;;;9.77;7.40;;;14.60;99.90;;;;;;5077574;28;20237;-92
2022/04/22 09:13:50;;;;;;;8.40;7.20;;;14.20;99.90;;;;;;5078975;28;20167;-91
2022/04/22 09:16:22;;;;;;;11.53;6.80;;;14.00;99.90;;;;;;5078096;28;20194;-92
2022/04/22 09:18:58;;;;;;;8.07;7.03;;;14.40;99.90;;;;;;5077479;28;20206;-92
2022/04/22 09:21:25;;;;;;;7.97;7.17;;;14.00;99.90;;;;;;5078642;28;20167;-91
2022/04/22 09:23:51;;;;;;;10.97;6.60;;;13.90;67.10;;;;;;5079528;28;20159;-91
2022/04/22 09:26:24;;;;;;;8.33;7.00;;;13.90;99.90;;;;;;5077779;28;20179;-92
2022/04/22 09:28:57;;;;;;;8.17;7.10;;;14.10;99.90;;;;;;5078615;28;20188;-92
2022/04/22 09:31:23;;;;;;;8.33;6.47;;;13.90;99.90;;;;;;5078477;28;20227;-92
2022/04/22 09:33:50;;;;;;;8.93;6.90;;;13.80;99.90;;;;;;5078453;28;20191;-92
2022/04/22 09:45:05;;;;;;;8.23;6.90;;;13.90;46.90;;;;;;5078702;28;20186;-90
2022/04/22 09:47:32;;;;;;;6.90;6.20;;;13.90;99.90;;;;;;5077343;28;20235;-93
2022/04/22 09:49:59;;;;;;;7.53;6.80;;;13.90;99.90;;;;;;5078529;28;20168;-91
2022/04/22 09:52:29;;;;;;;7.97;6.13;;;13.90;1.00;;;;;;5078445;28;20160;-92
2022/04/22 09:54:58;;;;;;;7.83;7.00;;;13.90;1.00;;;;;;5078872;28;20203;-90
2022/04/22 09:57:24;;;;;;;7.83;6.60;;;13.90;99.90;;;;;;5078874;28;20179;-92
2022/04/22 09:59:51;;;;;;;8.87;7.33;;;14.00;1.00;;;;;;5078478;28;20206;-92
2022/04/22 10:02:21;;;;;;;8.47;7.30;;;14.10;99.90;;;;;;5078573;28;20148;-89
2022/04/22 10:04:49;;;;;;;8.03;7.00;;;14.30;1.00;;;;;;5077307;28;20289;-92
2022/04/22 10:07:18;;;;;;;9.27;7.00;;;14.20;99.90;;;;;;5077620;28;20183;-91
2022/04/22 10:09:49;;;;;;;8.50;7.30;;;14.40;99.90;;;;;;5077464;28;20160;-92
2022/04/22 10:12:18;;;;;;;7.97;7.03;;;14.40;1.00;;;;;;5076677;28;20178;-92
2022/04/22 10:14:45;;;;;;;8.67;7.77;;;14.50;1.00;;;;;;5075938;28;20205;-92
2022/04/22 10:17:11;;;;;;;8.10;7.17;;;14.50;1.00;;;;;;5073370;28;20179;-92
2022/04/22 10:19:37;;;;;;;8.67;7.77;;;14.50;1.00;;;;;;5074542;28;20178;-92
2022/04/22 10:22:04;;;;;;;8.87;7.57;;;14.70;1.00;;;;;;5074486;28;20171;-91
2022/04/22 10:24:33;;;;;;;9.30;7.60;;;14.80;1.00;;;;;;5075320;28;20175;-92
2022/04/22 10:27:07;;;;;;;10.10;7.03;;;14.90;1.00;;;;;;5076489;28;20163;-92
2022/04/22 10:29:34;;;;;;;8.73;7.40;;;15.10;1.00;;;;;;5075684;28;20171;-92
2022/04/22 10:32:03;;;;;;;7.43;6.63;;;15.10;1.00;;;;;;5072765;28;20199;-91
2022/04/22 10:34:42;;;;;;;7.87;7.13;;;15.30;1.00;;;;;;5071684;28;20160;-92
2022/04/22 10:37:18;;;;;;;8.70;6.87;;;15.40;99.90;;;;;;5072678;28;20180;-92
2022/04/22 10:39:50;;;;;;;8.77;7.83;;;15.50;99.90;;;;;;5069683;28;20162;-93
2022/04/22 10:42:16;;;;;;;7.60;6.90;;;15.60;22.00;;;;;;5068769;28;20183;-91
2022/04/22 10:47:43;;;;;;;8.10;6.67;;;15.70;4.80;;;;;;5069047;28;20170;-91
2022/04/22 10:50:21;;;;;;;6.77;6.07;;;15.70;1.00;;;;;;5072470;28;20164;-92
2022/04/22 10:53:23;;;;;;;7.07;5.90;;;15.80;1.00;;;;;;5069719;28;20179;-92
2022/04/22 10:55:49;;;;;;;7.33;6.47;;;15.80;1.00;;;;;;5071016;28;20198;-92
2022/04/22 10:58:17;;;;;;;8.10;5.77;;;15.90;1.00;;;;;;5076140;28;20196;-92
2022/04/22 11:00:54;;;;;;;7.73;6.60;;;15.90;1.00;;;;;;5075687;28;20252;-92
2022/04/22 11:03:24;;;;;;;7.07;6.30;;;16.00;99.90;;;;;;5074444;28;20175;-92
2022/04/22 11:05:58;;;;;;;5.87;5.27;;;16.00;99.90;;;;;;5069794;28;20710;-93
2022/04/22 11:08:37;;;;;;;5.80;5.20;;;16.10;1.00;;;;;;5070778;28;20201;-92
2022/04/22 11:11:04;;;;;;;6.93;5.60;;;16.10;99.90;;;;;;5077946;28;20156;-92
2022/04/22 11:13:52;;;;;;;7.17;5.17;;;16.90;99.90;;;;;;5077607;28;20163;-91
2022/04/22 11:16:28;;;;;;;5.47;4.83;;;16.10;99.90;;;;;;5074854;22;20295;-76
2022/04/22 11:19:13;;;;;;;5.87;4.93;;;16.10;99.90;;;;;;5054354;28;20191;-75
2022/04/22 11:21:40;;;;;;;6.40;4.77;;;16.20;99.90;;;;;;5056541;28;20176;-76
2022/04/22 11:24:14;;;;;;;6.67;4.13;;;16.30;99.90;;;;;;5058141;28;20171;-75
2022/04/22 11:26:40;;;;;;;6.07;4.30;;;16.40;99.90;;;;;;5056971;28;20148;-76
2022/04/22 11:29:10;;;;;;;5.67;4.67;;;16.50;99.90;;;;;;5057952;28;20203;-76
2022/04/22 11:31:36;;;;;;;4.90;4.10;;;16.60;73.30;;;;;;5055538;28;20203;-75
2022/04/22 11:34:10;;;;;;;5.70;4.57;;;16.60;99.90;;;;;;5056430;28;20175;-75
2022/04/22 11:36:46;;;;;;;6.00;4.40;;;16.50;99.90;;;;;;5055352;28;20283;-76
2022/04/22 11:39:15;;;;;;;5.23;4.73;;;16.40;99.90;;;;;;5056112;28;20256;-75
2022/04/22 11:42:00;;;;;;;4.87;4.20;;;16.40;99.90;;;;;;5056211;28;20190;-75
2022/04/22 11:44:26;;;;;;;5.03;4.20;;;16.60;99.90;;;;;;5056128;28;20270;-75
2022/04/22 11:46:52;;;;;;;6.27;4.30;;;16.50;99.90;;;;;;5054954;28;20263;-75
2022/04/22 11:49:18;;;;;;;7.10;5.20;;;16.70;99.90;;;;;;5056131;28;20657;-76
2022/04/22 11:51:44;;;;;;;9.50;4.97;;;16.60;43.90;;;;;;5057222;28;20172;-76
2022/04/22 11:54:09;;;;;;;6.37;5.67;;;16.70;99.90;;;;;;5057466;28;20181;-77
2022/04/22 11:56:37;;;;;;;8.23;6.03;;;16.60;99.90;;;;;;5058317;28;20175;-76
2022/04/22 11:59:03;;;;;;;9.13;6.10;;;16.50;99.90;;;;;;5057618;28;20672;-79
2022/04/22 12:10:02;;;;;;;7.00;6.27;;;16.20;99.90;;;;;;5044617;28;20243;-80
2022/04/22 12:12:31;;;;;;;8.00;6.17;;;16.40;1.00;;;;;;5064574;28;20175;-79
2022/04/22 12:15:04;;;;;;;6.80;5.93;;;16.40;1.00;;;;;;5064829;28;20191;-79
2022/04/22 12:17:30;;;;;;;7.60;6.33;;;16.50;99.90;;;;;;5065031;28;20227;-79
2022/04/22 12:19:56;;;;;;;6.67;5.87;;;16.50;99.90;;;;;;5064434;28;20637;-79
2022/04/22 12:22:23;;;;;;;10.33;6.50;;;16.70;99.90;;;;;;5063102;28;20179;-79
2022/04/22 12:25:14;;;;;;;7.07;6.00;;;16.60;99.90;;;;;;5067078;28;20264;-79
2022/04/22 12:27:41;;;;;;;6.40;5.77;;;16.60;99.90;;;;;;5070316;28;20243;-80
2022/04/22 12:30:11;;;;;;;8.43;6.00;;;16.70;99.90;;;;;;5073330;28;20194;-80
2022/04/22 12:32:37;;;;;;;6.70;6.00;;;16.70;1.00;;;;;;5068736;28;20178;-80
2022/04/22 12:35:17;;;;;;;10.13;6.80;;;16.80;99.90;;;;;;5070688;28;20269;-80
2022/04/22 12:37:50;;;;;;;7.47;5.33;;;16.80;99.90;;;;;;5070095;28;20665;-79
2022/04/22 12:40:18;;;;;;;6.80;5.00;;;17.00;99.90;;;;;;5068613;28;20202;-79
2022/04/22 12:42:43;;;;;;;6.67;5.43;;;17.20;99.90;;;;;;5066229;28;20171;-80
2022/04/22 12:53:31;;;;;;;7.00;5.80;;;17.00;99.90;;;;;;5064394;28;20159;-79
2022/04/22 12:56:02;;;;;;;8.30;6.40;;;16.90;1.00;;;;;;5063047;28;20278;-79
2022/04/22 12:58:28;;;;;;;9.70;5.90;;;16.90;99.90;;;;;;5063039;28;20195;-79
2022/04/22 13:00:54;;;;;;;7.67;6.30;;;16.90;99.90;;;;;;5062927;28;20179;-78
2022/04/22 13:03:23;;;;;;;7.17;5.87;;;16.80;99.90;;;;;;5061006;28;20171;-78
2022/04/22 13:05:49;;;;;;;9.47;6.27;;;16.90;1.00;;;;;;5081807;22;20233;-78
2022/04/22 13:08:15;;;;;;;6.30;5.70;;;17.00;99.90;;;;;;5054835;28;20258;-77
2022/04/22 13:10:41;;;;;;;7.27;6.20;;;17.00;99.90;;;;;;5054919;28;20179;-77
2022/04/22 13:13:11;;;;;;;6.90;6.03;;;17.20;99.90;;;;;;5055096;28;20186;-77
2022/04/22 13:15:37;;;;;;;11.53;6.23;;;17.20;99.90;;;;;;5055607;28;20191;-78
2022/04/22 13:18:03;;;;;;;12.23;6.83;;;17.40;95.80;;;;;;5055371;28;20206;-77
2022/04/22 13:20:28;;;;;;;9.83;6.67;;;17.30;99.90;;;;;;5053461;28;20175;-77
2022/04/22 13:22:56;;;;;;;7.47;6.37;;;17.30;99.90;;;;;;5053341;28;20645;-77
2022/04/22 13:25:22;;;;;;;6.63;5.63;;;17.30;99.90;;;;;;5054965;28;20194;-78
2022/04/22 13:27:47;;;;;;;10.40;5.40;;;17.20;1.00;;;;;;5053378;28;20176;-77
2022/04/22 13:30:16;;;;;;;12.43;5.37;;;17.20;1.00;;;;;;5054548;28;20175;-77
2022/04/22 13:32:42;;;;;;;5.50;5.00;;;17.30;99.90;;;;;;5053507;28;20225;-77
2022/04/22 13:35:10;;;;;;;5.97;5.03;;;17.40;12.20;;;;;;5053196;28;20199;-77
2022/04/22 13:37:36;;;;;;;7.10;5.40;;;17.30;1.00;;;;;;5054385;28;20237;-77
2022/04/22 13:40:03;;;;;;;6.60;5.27;;;17.50;4.20;;;;;;5054882;28;20171;-77
2022/04/22 13:42:28;;;;;;;6.13;4.97;;;17.40;13.90;;;;;;5053995;28;20172;-78
2022/04/22 13:53:06;;;;;;;4.70;4.20;;;17.50;1.00;;;;;;5053932;28;20210;-75
2022/04/22 13:55:35;;;;;;;6.23;4.40;;;17.60;1.00;;;;;;5053578;28;20203;-76
2022/04/22 13:58:00;;;;;;;5.97;4.27;;;17.70;1.00;;;;;;5053401;28;20191;-75
2022/04/22 14:00:26;;;;;;;6.10;4.87;;;17.60;1.00;;;;;;5053485;28;20176;-75
2022/04/22 14:02:52;;;;;;;9.63;5.70;;;17.50;1.00;;;;;;5052604;28;20174;-77
2022/04/22 14:05:21;;;;;;;6.33;5.47;;;17.40;1.00;;;;;;5053340;28;20199;-77
2022/04/22 14:07:48;;;;;;;7.27;5.57;;;17.30;1.00;;;;;;5054087;28;20199;-76
2022/04/22 14:10:14;;;;;;;7.30;5.80;;;17.30;97.80;;;;;;5053778;28;20653;-76
2022/04/22 14:12:40;;;;;;;7.47;5.93;;;17.40;1.00;;;;;;5052110;28;20179;-76
2022/04/22 14:15:06;;;;;;;6.57;5.47;;;17.30;1.00;;;;;;5053271;28;20183;-75